createdAt,value
2023-01-05T00:01:44.114Z,100.00
2023-01-05T00:04:11.725Z,100.00
2023-01-05T00:06:39.856Z,100.00
2023-01-05T00:09:11.198Z,100.00
2023-01-05T00:11:57.129Z,100.00
2023-01-05T00:14:46.552Z,100.00
2023-01-05T00:17:39.493Z,100.00
2023-01-05T00:20:31.968Z,100.00
2023-01-05T00:22:59.344Z,100.00
2023-01-05T00:25:30.516Z,100.00
2023-01-05T00:27:58.979Z,100.00
2023-01-05T00:30:30.346Z,100.00
2023-01-05T00:32:57.435Z,100.00
2023-01-05T00:35:24.958Z,100.00
2023-01-05T00:37:52.381Z,100.00
2023-01-05T00:40:22.481Z,100.00
2023-01-05T00:42:49.578Z,100.00
2023-01-05T00:45:18.984Z,100.00
2023-01-05T00:47:46.153Z,100.00
2023-01-05T00:50:18.575Z,100.00
2023-01-05T00:52:46.704Z,100.00
2023-01-05T00:55:14.788Z,100.00
2023-01-05T00:57:42.158Z,100.00
2023-01-05T01:00:15.728Z,100.00
2023-01-05T01:02:43.142Z,100.00
2023-01-05T01:05:10.488Z,100.00
2023-01-05T01:07:37.652Z,100.00
2023-01-05T01:10:05.899Z,100.00
2023-01-05T01:12:33.023Z,100.00
2023-01-05T01:15:00.066Z,100.00
2023-01-05T01:17:27.219Z,100.00
2023-01-05T01:19:54.227Z,100.00
2023-01-05T01:22:21.253Z,100.00
2023-01-05T01:24:48.321Z,100.00
2023-01-05T01:27:15.568Z,100.00
2023-01-05T01:29:42.609Z,100.00
2023-01-05T01:32:10.116Z,100.00
2023-01-05T01:34:37.135Z,100.00
2023-01-05T01:37:04.292Z,100.00
2023-01-05T01:39:31.412Z,100.00
2023-01-05T01:41:58.433Z,100.00
2023-01-05T01:44:56.131Z,100.00
2023-01-05T01:47:47.469Z,100.00
2023-01-05T01:51:00.971Z,100.00
2023-01-05T01:53:51.247Z,100.00
2023-01-05T01:56:22.584Z,100.00
2023-01-05T01:58:50.354Z,100.00
2023-01-05T02:01:17.706Z,100.00
2023-01-05T02:03:45.756Z,100.00
2023-01-05T02:06:13.097Z,100.00
2023-01-05T02:08:40.323Z,100.00
2023-01-05T02:11:44.476Z,100.00
2023-01-05T02:14:35.890Z,100.00
2023-01-05T02:17:08.968Z,100.00
2023-01-05T02:20:48.110Z,100.00
2023-01-05T02:23:46.151Z,100.00
2023-01-05T02:27:02.206Z,100.00
2023-01-05T02:29:58.240Z,100.00
2023-01-05T02:32:43.183Z,100.00
2023-01-05T02:35:33.495Z,100.00
2023-01-05T02:38:26.334Z,100.00
2023-01-05T02:41:02.261Z,100.00
2023-01-05T02:43:29.621Z,100.00
2023-01-05T02:45:56.782Z,100.00
2023-01-05T02:48:24.549Z,100.00
2023-01-05T02:51:01.031Z,100.00
2023-01-05T02:53:39.942Z,100.00
2023-01-05T02:56:12.995Z,100.00
2023-01-05T02:58:53.055Z,100.00
2023-01-05T03:01:29.855Z,100.00
2023-01-05T03:04:01.399Z,100.00
2023-01-05T03:06:47.462Z,100.00
2023-01-05T03:09:20.091Z,100.00
2023-01-05T03:12:27.639Z,100.00
2023-01-05T03:15:06.619Z,100.00
2023-01-05T03:17:46.979Z,100.00
2023-01-05T03:20:17.201Z,100.00
2023-01-05T03:23:05.139Z,100.00
2023-01-05T03:25:56.327Z,100.00
2023-01-05T03:29:00.897Z,100.00
2023-01-05T03:32:24.599Z,100.00
2023-01-05T03:35:21.602Z,100.00
2023-01-05T03:38:04.199Z,100.00
2023-01-05T03:40:34.761Z,100.00
2023-01-05T03:43:03.582Z,100.00
2023-01-05T03:45:44.904Z,100.00
2023-01-05T03:48:11.952Z,100.00
2023-01-05T03:50:39.120Z,100.00
2023-01-05T03:53:07.975Z,100.00
2023-01-05T03:55:35.128Z,100.00
2023-01-05T03:58:02.197Z,100.00
2023-01-05T04:00:29.304Z,100.00
2023-01-05T04:02:56.475Z,100.00
2023-01-05T04:05:23.575Z,100.00
2023-01-05T04:07:50.984Z,100.00
2023-01-05T04:10:18.113Z,100.00
2023-01-05T04:12:46.351Z,100.00
2023-01-05T04:15:13.378Z,100.00
2023-01-05T04:17:40.380Z,100.00
2023-01-05T04:20:07.944Z,100.00
2023-01-05T04:22:34.942Z,100.00
2023-01-05T04:25:01.995Z,100.00
2023-01-05T04:27:29.030Z,100.00
2023-01-05T04:29:56.071Z,100.00
2023-01-05T04:32:23.149Z,100.00
2023-01-05T04:34:50.241Z,100.00
2023-01-05T04:37:17.313Z,100.00
2023-01-05T04:39:44.328Z,100.00
2023-01-05T04:42:11.369Z,100.00
2023-01-05T04:44:38.393Z,100.00
2023-01-05T04:47:05.579Z,100.00
2023-01-05T04:49:33.802Z,100.00
2023-01-05T04:52:00.838Z,100.00
2023-01-05T04:54:27.851Z,100.00
2023-01-05T04:56:54.841Z,100.00
2023-01-05T04:59:21.883Z,100.00
2023-01-05T05:01:49.071Z,100.00
2023-01-05T05:04:16.185Z,100.00
2023-01-05T05:06:43.161Z,100.00
2023-01-05T05:09:10.633Z,100.00
2023-01-05T05:11:37.663Z,100.00
2023-01-05T05:14:04.773Z,100.00
2023-01-05T05:16:31.793Z,100.00
2023-01-05T05:18:58.988Z,100.00
2023-01-05T05:21:26.033Z,100.00
2023-01-05T05:23:53.049Z,100.00
2023-01-05T05:26:20.191Z,100.00
2023-01-05T05:28:47.171Z,100.00
2023-01-05T05:31:14.198Z,100.00
2023-01-05T05:33:41.872Z,100.00
2023-01-05T05:36:09.336Z,100.00
2023-01-05T05:38:36.367Z,100.00
2023-01-05T05:41:03.436Z,100.00
2023-01-05T05:43:30.434Z,100.00
2023-01-05T05:45:57.435Z,100.00
2023-01-05T05:48:24.439Z,100.00
2023-01-05T05:50:51.422Z,100.00
2023-01-05T05:53:18.429Z,100.00
2023-01-05T05:55:49.942Z,100.00
2023-01-05T05:58:20.240Z,100.00
2023-01-05T06:00:47.693Z,100.00
2023-01-05T06:03:15.374Z,100.00
2023-01-05T06:05:42.645Z,100.00
2023-01-05T06:08:09.973Z,100.00
2023-01-05T06:10:37.039Z,100.00
2023-01-05T06:13:05.130Z,100.00
2023-01-05T06:15:32.227Z,100.00
2023-01-05T06:17:59.305Z,100.00
2023-01-05T06:20:26.427Z,100.00
2023-01-05T06:22:53.465Z,100.00
2023-01-05T06:25:20.517Z,100.00
2023-01-05T06:27:47.634Z,100.00
2023-01-05T06:30:14.850Z,100.00
2023-01-05T06:32:41.966Z,100.00
2023-01-05T06:35:09.563Z,100.00
2023-01-05T06:37:36.707Z,100.00
2023-01-05T06:40:04.613Z,100.00
2023-01-05T06:42:32.190Z,100.00
2023-01-05T06:44:59.258Z,100.00
2023-01-05T06:47:26.319Z,100.00
2023-01-05T06:49:53.452Z,100.00
2023-01-05T06:52:20.503Z,100.00
2023-01-05T06:54:47.630Z,100.00
2023-01-05T06:57:14.660Z,100.00
2023-01-05T06:59:41.737Z,100.00
2023-01-05T07:02:17.143Z,100.00
2023-01-05T07:04:44.395Z,100.00
2023-01-05T07:07:15.835Z,100.00
2023-01-05T07:09:45.052Z,100.00
2023-01-05T07:12:12.043Z,100.00
2023-01-05T07:14:39.190Z,100.00
2023-01-05T07:17:06.223Z,100.00
2023-01-05T07:19:33.275Z,100.00
2023-01-05T07:22:00.539Z,100.00
2023-01-05T07:24:27.640Z,100.00
2023-01-05T07:26:54.668Z,100.00
2023-01-05T07:29:21.720Z,100.00
2023-01-05T07:31:52.332Z,100.00
2023-01-05T07:34:23.264Z,100.00
2023-01-05T07:36:50.579Z,100.00
2023-01-05T07:39:17.911Z,100.00
2023-01-05T07:41:45.149Z,100.00
2023-01-05T07:44:12.336Z,100.00
2023-01-05T07:46:39.318Z,100.00
2023-01-05T07:49:06.516Z,100.00
2023-01-05T07:51:33.599Z,100.00
2023-01-05T07:54:00.662Z,100.00
2023-01-05T07:56:27.704Z,100.00
2023-01-05T07:58:54.848Z,100.00
2023-01-05T08:01:22.027Z,100.00
2023-01-05T08:03:49.185Z,100.00
2023-01-05T08:06:19.174Z,100.00
2023-01-05T08:08:47.494Z,100.00
2023-01-05T08:11:17.062Z,100.00
2023-01-05T08:14:00.508Z,100.00
2023-01-05T08:16:33.405Z,100.00
2023-01-05T08:19:00.857Z,100.00
2023-01-05T08:21:28.344Z,100.00
2023-01-05T08:23:55.341Z,100.00
2023-01-05T08:26:24.149Z,100.00
2023-01-05T08:28:52.569Z,100.00
2023-01-05T08:31:29.646Z,100.00
2023-01-05T08:34:02.467Z,100.00
2023-01-05T08:36:31.400Z,100.00
2023-01-05T08:39:01.210Z,100.00
2023-01-05T08:41:35.963Z,100.00
2023-01-05T08:44:06.354Z,100.00
2023-01-05T08:46:35.764Z,99.53
2023-01-05T08:49:06.386Z,99.75
2023-01-05T08:51:34.184Z,99.75
2023-01-05T08:54:01.555Z,100.00
2023-01-05T08:56:33.101Z,99.58
2023-01-05T08:59:03.691Z,99.50
2023-01-05T09:01:31.340Z,99.67
2023-01-05T09:03:58.469Z,99.39
2023-01-05T09:06:25.527Z,99.14
2023-01-05T09:08:52.480Z,98.56
2023-01-05T09:11:22.431Z,98.28
2023-01-05T09:13:52.881Z,98.09
2023-01-05T09:19:10.905Z,96.21
2023-01-05T09:21:40.738Z,95.24
2023-01-05T09:24:12.807Z,93.48
2023-01-05T09:26:41.525Z,92.49
2023-01-05T09:29:09.805Z,92.30
2023-01-05T09:31:37.022Z,90.83
2023-01-05T09:34:04.470Z,89.93
2023-01-05T09:36:32.400Z,88.75
2023-01-05T09:38:59.533Z,87.14
2023-01-05T09:41:35.589Z,85.92
2023-01-05T09:44:25.573Z,85.52
2023-01-05T09:46:55.921Z,85.02
2023-01-05T09:49:26.159Z,84.35
2023-01-05T09:52:00.725Z,84.69
2023-01-05T09:54:30.269Z,84.26
2023-01-05T09:57:15.174Z,82.77
2023-01-05T09:59:50.490Z,82.29
2023-01-05T10:02:29.306Z,82.36
2023-01-05T10:04:57.171Z,80.64
2023-01-05T10:07:31.097Z,81.04
2023-01-05T10:10:06.163Z,81.28
2023-01-05T10:13:06.961Z,81.03
2023-01-05T10:15:48.678Z,81.29
2023-01-05T10:18:28.417Z,80.81
2023-01-05T10:21:17.440Z,80.83
2023-01-05T10:24:00.824Z,80.80
2023-01-05T10:27:25.487Z,81.00
2023-01-05T10:30:03.346Z,80.63
2023-01-05T10:33:22.120Z,80.38
2023-01-05T10:36:28.113Z,81.04
2023-01-05T10:39:59.257Z,81.53
2023-01-05T10:42:45.403Z,82.15
2023-01-05T10:45:16.955Z,82.03
2023-01-05T10:47:46.275Z,82.19
2023-01-05T10:50:40.678Z,81.99
2023-01-05T10:53:13.232Z,82.51
2023-01-05T10:56:06.114Z,80.15
2023-01-05T10:58:36.470Z,80.46
2023-01-05T11:01:18.132Z,80.90
2023-01-05T11:06:38.214Z,81.69
2023-01-05T11:09:22.112Z,80.49
2023-01-05T11:12:03.050Z,80.09
2023-01-05T11:14:35.983Z,80.55
2023-01-05T11:17:08.054Z,79.97
2023-01-05T11:19:45.547Z,79.42
2023-01-05T11:22:36.638Z,78.84
2023-01-05T11:25:33.289Z,78.42
2023-01-05T11:28:16.435Z,78.50
2023-01-05T11:31:02.406Z,79.03
2023-01-05T11:33:34.942Z,78.38
2023-01-05T11:36:04.646Z,78.46
2023-01-05T11:38:32.484Z,77.89
2023-01-05T11:41:01.180Z,77.88
2023-01-05T11:43:32.205Z,77.64
2023-01-05T11:46:04.931Z,76.97
2023-01-05T11:48:35.367Z,77.40
2023-01-05T11:51:02.997Z,76.85
2023-01-05T11:53:40.478Z,77.08
2023-01-05T11:56:23.231Z,77.82
2023-01-05T11:58:55.870Z,77.87
2023-01-05T12:01:58.742Z,78.94
2023-01-05T12:04:54.689Z,79.28
2023-01-05T12:07:43.635Z,79.58
2023-01-05T12:10:39.839Z,79.03
2023-01-05T12:13:43.672Z,78.50
2023-01-05T12:16:35.556Z,78.04
2023-01-05T12:19:24.340Z,77.29
2023-01-05T12:22:09.012Z,77.81
2023-01-05T12:25:01.834Z,77.35
2023-01-05T12:27:49.571Z,76.52
2023-01-05T12:34:13.898Z,75.43
2023-01-05T12:37:17.973Z,75.30
2023-01-05T12:40:19.593Z,75.05
2023-01-05T12:42:58.965Z,74.82
2023-01-05T12:45:55.703Z,74.43
2023-01-05T12:48:44.986Z,74.37
2023-01-05T12:51:52.180Z,74.16
2023-01-05T12:54:40.998Z,74.26
2023-01-05T12:57:27.132Z,74.10
2023-01-05T13:00:11.981Z,73.96
2023-01-05T13:02:46.632Z,74.48
2023-01-05T13:05:31.903Z,73.83
2023-01-05T13:08:25.772Z,73.75
2023-01-05T13:10:56.486Z,74.70
2023-01-05T13:14:00.123Z,75.18
2023-01-05T13:16:40.020Z,74.48
2023-01-05T13:19:24.723Z,74.27
2023-01-05T13:21:53.882Z,75.13
2023-01-05T13:24:38.246Z,75.55
2023-01-05T13:27:05.400Z,75.20
2023-01-05T13:29:40.633Z,75.16
2023-01-05T13:32:32.267Z,75.00
2023-01-05T13:35:14.496Z,75.03
2023-01-05T13:38:32.339Z,75.81
2023-01-05T13:41:13.869Z,75.76
2023-01-05T13:44:17.745Z,76.12
2023-01-05T13:47:02.717Z,76.26
2023-01-05T13:49:55.511Z,76.63
2023-01-05T13:53:05.176Z,77.36
2023-01-05T13:55:37.137Z,76.95
2023-01-05T13:58:06.303Z,77.52
2023-01-05T14:00:43.031Z,77.76
2023-01-05T14:03:09.980Z,78.16
2023-01-05T14:05:53.083Z,77.85
2023-01-05T14:08:35.198Z,78.16
2023-01-05T14:11:22.281Z,78.20
2023-01-05T14:13:59.679Z,78.31
2023-01-05T14:16:38.480Z,78.48
2023-01-05T14:19:31.193Z,78.70
2023-01-05T14:22:20.825Z,79.24
2023-01-05T14:24:48.674Z,79.22
2023-01-05T14:27:23.494Z,78.88
2023-01-05T14:32:37.327Z,78.58
2023-01-05T14:35:24.978Z,78.59
2023-01-05T14:38:24.333Z,78.02
2023-01-05T14:40:56.274Z,78.30
2023-01-05T14:43:33.318Z,79.02
2023-01-05T14:46:15.390Z,79.06
2023-01-05T14:49:06.945Z,79.29
2023-01-05T14:51:36.671Z,79.13
2023-01-05T14:54:06.145Z,79.34
2023-01-05T14:56:37.863Z,79.29
2023-01-05T14:59:24.020Z,78.91
2023-01-05T15:04:52.512Z,79.25
2023-01-05T15:07:30.291Z,78.97
2023-01-05T15:10:11.914Z,78.97
2023-01-05T15:12:59.257Z,79.14
2023-01-05T15:15:48.059Z,78.51
2023-01-05T15:18:52.688Z,79.31
2023-01-05T15:21:49.794Z,79.45
2023-01-05T15:24:54.227Z,79.84
2023-01-05T15:28:21.198Z,80.15
2023-01-05T15:31:09.494Z,80.02
2023-01-05T15:34:06.580Z,80.47
2023-01-05T15:37:12.469Z,80.69
2023-01-05T15:39:55.779Z,80.76
2023-01-05T15:42:42.440Z,80.79
2023-01-05T15:45:30.853Z,81.31
2023-01-05T15:48:09.274Z,81.51
2023-01-05T15:50:48.425Z,81.30
2023-01-05T15:53:32.934Z,82.23
2023-01-05T15:56:00.785Z,82.95
2023-01-05T15:58:31.309Z,83.73
2023-01-05T16:01:06.645Z,84.59
2023-01-05T16:03:37.542Z,85.20
2023-01-05T16:06:15.650Z,85.49
2023-01-05T16:08:47.435Z,85.92
2023-01-05T16:11:39.957Z,86.76
2023-01-05T16:14:20.208Z,87.32
2023-01-05T16:17:00.552Z,87.52
2023-01-05T16:19:47.067Z,87.52
2023-01-05T16:22:38.975Z,87.53
2023-01-05T16:25:13.339Z,87.35
2023-01-05T16:27:44.595Z,87.37
2023-01-05T16:30:34.686Z,86.86
2023-01-05T16:33:11.894Z,86.41
2023-01-05T16:35:46.936Z,86.27
2023-01-05T16:38:22.688Z,86.02
2023-01-05T16:40:49.700Z,85.02
2023-01-05T16:43:36.774Z,83.79
2023-01-05T16:46:29.120Z,82.72
2023-01-05T16:49:20.605Z,81.93
2023-01-05T16:51:47.700Z,81.02
2023-01-05T16:54:24.651Z,80.67
2023-01-05T16:57:01.561Z,80.19
2023-01-05T16:59:40.504Z,79.48
2023-01-05T17:02:46.664Z,79.27
2023-01-05T17:05:19.435Z,78.46
2023-01-05T17:07:49.909Z,78.98
2023-01-05T17:10:26.403Z,78.74
2023-01-05T17:13:05.760Z,78.50
2023-01-05T17:15:36.296Z,78.93
2023-01-05T17:18:24.318Z,79.16
2023-01-05T17:20:54.395Z,79.22
2023-01-05T17:23:33.805Z,79.55
2023-01-05T17:26:12.401Z,79.93
2023-01-05T17:28:42.035Z,80.50
2023-01-05T17:31:10.213Z,80.93
2023-01-05T17:33:37.272Z,81.43
2023-01-05T17:36:05.123Z,81.73
2023-01-05T17:38:32.131Z,82.41
2023-01-05T17:40:59.143Z,83.46
2023-01-05T17:43:26.583Z,83.71
2023-01-05T17:45:53.768Z,84.34
2023-01-05T17:48:20.803Z,84.21
2023-01-05T17:50:47.846Z,84.39
2023-01-05T17:53:14.932Z,84.83
2023-01-05T17:55:43.052Z,84.58
2023-01-05T17:58:14.422Z,84.31
2023-01-05T18:00:49.756Z,83.53
2023-01-05T18:03:22.144Z,84.21
2023-01-05T18:05:52.453Z,83.90
2023-01-05T18:08:21.423Z,83.27
2023-01-05T18:10:48.588Z,83.30
2023-01-05T18:13:18.191Z,82.46
2023-01-05T18:15:53.296Z,82.51
2023-01-05T18:18:21.648Z,82.16
2023-01-05T18:20:51.501Z,81.93
2023-01-05T18:23:20.683Z,81.90
2023-01-05T18:25:47.822Z,81.64
2023-01-05T18:28:15.024Z,81.81
2023-01-05T18:30:43.301Z,81.42
2023-01-05T18:35:44.264Z,82.06
2023-01-05T18:38:11.729Z,81.72
2023-01-05T18:40:38.875Z,81.48
2023-01-05T18:43:06.075Z,81.74
2023-01-05T18:45:39.211Z,81.99
2023-01-05T18:48:07.568Z,82.15
2023-01-05T18:50:34.650Z,82.87
2023-01-05T18:53:01.652Z,83.71
2023-01-05T18:55:29.023Z,83.45
2023-01-05T18:57:56.021Z,83.62
2023-01-05T19:00:23.159Z,83.92
2023-01-05T19:02:50.208Z,82.83
2023-01-05T19:05:17.334Z,83.59
2023-01-05T19:07:44.360Z,83.12
2023-01-05T19:10:11.413Z,83.18
2023-01-05T19:12:38.430Z,82.34
2023-01-05T19:15:06.024Z,82.00
2023-01-05T19:17:34.218Z,81.57
2023-01-05T19:20:01.292Z,80.97
2023-01-05T19:22:28.384Z,80.35
2023-01-05T19:24:55.389Z,79.94
2023-01-05T19:27:22.368Z,79.00
2023-01-05T19:29:49.382Z,78.64
2023-01-05T19:32:16.409Z,78.32
2023-01-05T19:34:43.520Z,76.90
2023-01-05T19:37:10.534Z,77.24
2023-01-05T19:39:37.784Z,76.75
2023-01-05T19:42:05.065Z,76.45
2023-01-05T19:44:32.773Z,75.96
2023-01-05T19:46:59.881Z,75.36
2023-01-05T19:49:28.469Z,75.17
2023-01-05T19:51:55.722Z,74.79
2023-01-05T19:54:25.361Z,74.83
2023-01-05T19:56:54.689Z,74.32
2023-01-05T19:59:32.815Z,73.89
2023-01-05T20:02:01.865Z,73.90
2023-01-05T20:04:30.278Z,73.61
2023-01-05T20:06:58.168Z,73.78
2023-01-05T20:09:25.630Z,73.35
2023-01-05T20:11:59.525Z,73.72
2023-01-05T20:14:31.877Z,73.31
2023-01-05T20:17:06.733Z,73.37
2023-01-05T20:19:35.986Z,73.37
2023-01-05T20:22:05.671Z,72.90
2023-01-05T20:24:36.212Z,73.25
2023-01-05T20:27:08.263Z,73.22
2023-01-05T20:29:35.631Z,73.16
2023-01-05T20:32:08.638Z,73.27
2023-01-05T20:34:39.292Z,73.54
2023-01-05T20:37:09.337Z,73.02
2023-01-05T20:39:38.465Z,73.30
2023-01-05T20:42:05.750Z,74.07
2023-01-05T20:44:36.879Z,74.24
2023-01-05T20:47:05.835Z,74.49
2023-01-05T20:49:36.662Z,74.74
2023-01-05T20:52:05.511Z,74.96
2023-01-05T20:54:32.665Z,75.40
2023-01-05T20:57:00.087Z,75.85
2023-01-05T20:59:30.756Z,75.81
2023-01-05T21:01:59.480Z,75.92
2023-01-05T21:04:28.430Z,76.04
2023-01-05T21:06:59.383Z,75.84
2023-01-05T21:09:29.297Z,75.84
2023-01-05T21:11:56.990Z,75.56
2023-01-05T21:14:24.126Z,75.29
2023-01-05T21:16:54.575Z,74.48
2023-01-05T21:19:23.996Z,73.76
2023-01-05T21:21:56.023Z,73.17
2023-01-05T21:24:24.730Z,73.42
2023-01-05T21:26:52.009Z,73.46
2023-01-05T21:29:22.523Z,73.51
2023-01-05T21:31:51.652Z,73.60
2023-01-05T21:34:18.807Z,73.93
2023-01-05T21:36:49.100Z,73.74
2023-01-05T21:39:22.979Z,73.54
2023-01-05T21:42:11.253Z,73.45
2023-01-05T21:44:39.704Z,73.51
2023-01-05T21:47:07.320Z,73.75
2023-01-05T21:49:35.965Z,73.49
2023-01-05T21:52:22.211Z,73.79
2023-01-05T21:55:08.114Z,72.74
2023-01-05T21:57:35.799Z,72.23
2023-01-05T22:00:03.181Z,71.81
2023-01-05T22:02:30.176Z,71.26
2023-01-05T22:04:57.219Z,70.33
2023-01-05T22:07:24.243Z,70.34
2023-01-05T22:09:51.254Z,69.75
2023-01-05T22:12:18.844Z,69.93
2023-01-05T22:14:45.969Z,69.59
2023-01-05T22:17:13.222Z,69.54
2023-01-05T22:19:40.252Z,69.56
2023-01-05T22:22:07.286Z,69.52
2023-01-05T22:24:34.354Z,69.48
2023-01-05T22:27:01.426Z,69.49
2023-01-05T22:29:28.520Z,69.67
2023-01-05T22:31:55.687Z,69.80
2023-01-05T22:34:22.711Z,69.84
2023-01-05T22:36:50.298Z,70.12
2023-01-05T22:39:17.456Z,70.60
2023-01-05T22:41:45.569Z,70.66
2023-01-05T22:44:12.663Z,70.84
2023-01-05T22:46:39.656Z,71.18
2023-01-05T22:49:06.777Z,70.95
2023-01-05T22:51:37.260Z,70.93
2023-01-05T22:54:05.249Z,70.57
2023-01-05T22:56:34.480Z,70.48
2023-01-05T22:59:02.662Z,70.47
2023-01-05T23:01:37.110Z,70.49
2023-01-05T23:04:06.829Z,70.40
2023-01-05T23:06:34.067Z,70.15
2023-01-05T23:09:02.128Z,70.05
2023-01-05T23:11:33.183Z,70.17
2023-01-05T23:14:02.453Z,70.14
2023-01-05T23:16:29.915Z,70.17
2023-01-05T23:18:57.095Z,70.01
2023-01-05T23:21:26.771Z,69.51
2023-01-05T23:23:56.436Z,69.72
2023-01-05T23:26:25.758Z,69.29
2023-01-05T23:28:53.258Z,69.01
2023-01-05T23:31:20.365Z,69.14
2023-01-05T23:33:48.863Z,68.93
2023-01-05T23:36:18.264Z,69.05
2023-01-05T23:38:46.334Z,69.26
2023-01-05T23:41:15.596Z,69.08
2023-01-05T23:43:45.238Z,69.43
2023-01-05T23:46:23.735Z,69.54
2023-01-05T23:48:52.130Z,69.26
2023-01-05T23:51:19.579Z,69.14
2023-01-05T23:53:49.978Z,69.37
2023-01-05T23:56:27.502Z,69.20
2023-01-05T23:59:06.105Z,69.29
